sensor_id;sensor_type;location;lat;lon;timestamp;P1;durP1;ratioP1;P2;durP2;ratioP2
64342;SDS011;50675;53.530;-6.312;2022-09-09T00:00:11;13.73;;;7.28;;
64342;SDS011;50675;53.530;-6.312;2022-09-09T00:05:14;13.27;;;6.88;;
64342;SDS011;50675;53.530;-6.312;2022-09-09T00:07:52;11.20;;;6.80;;
64342;SDS011;50675;53.530;-6.312;2022-09-09T00:16:09;12.65;;;7.93;;
64342;SDS011;50675;53.530;-6.312;2022-09-09T00:18:52;12.20;;;7.07;;
64342;SDS011;50675;53.530;-6.312;2022-09-09T00:21:33;12.07;;;7.18;;
64342;SDS011;50675;53.530;-6.312;2022-09-09T00:27:07;11.57;;;6.68;;
64342;SDS011;50675;53.530;-6.312;2022-09-09T00:29:44;12.02;;;6.82;;
64342;SDS011;50675;53.530;-6.312;2022-09-09T00:32:19;9.65;;;6.10;;
64342;SDS011;50675;53.530;-6.312;2022-09-09T00:34:51;9.70;;;5.90;;
64342;SDS011;50675;53.530;-6.312;2022-09-09T00:37:20;11.15;;;6.72;;
64342;SDS011;50675;53.530;-6.312;2022-09-09T00:39:50;14.88;;;6.35;;
64342;SDS011;50675;53.530;-6.312;2022-09-09T00:42:22;11.18;;;5.97;;
64342;SDS011;50675;53.530;-6.312;2022-09-09T00:44:56;11.25;;;5.75;;
64342;SDS011;50675;53.530;-6.312;2022-09-09T00:47:39;8.40;;;5.43;;
64342;SDS011;50675;53.530;-6.312;2022-09-09T00:58:06;9.10;;;6.25;;
64342;SDS011;50675;53.530;-6.312;2022-09-09T01:00:41;10.57;;;6.07;;
64342;SDS011;50675;53.530;-6.312;2022-09-09T01:08:57;10.18;;;6.60;;
64342;SDS011;50675;53.530;-6.312;2022-09-09T01:11:48;12.57;;;6.47;;
64342;SDS011;50675;53.530;-6.312;2022-09-09T01:17:07;9.25;;;6.72;;
64342;SDS011;50675;53.530;-6.312;2022-09-09T01:23:04;9.77;;;5.82;;
64342;SDS011;50675;53.530;-6.312;2022-09-09T01:28:22;10.13;;;6.30;;
64342;SDS011;50675;53.530;-6.312;2022-09-09T01:30:53;11.80;;;6.35;;
64342;SDS011;50675;53.530;-6.312;2022-09-09T01:33:20;11.60;;;6.15;;
64342;SDS011;50675;53.530;-6.312;2022-09-09T01:35:53;10.27;;;5.53;;
64342;SDS011;50675;53.530;-6.312;2022-09-09T01:38:26;8.82;;;5.38;;
64342;SDS011;50675;53.530;-6.312;2022-09-09T01:40:53;10.05;;;5.45;;
64342;SDS011;50675;53.530;-6.312;2022-09-09T01:43:22;10.93;;;5.15;;
64342;SDS011;50675;53.530;-6.312;2022-09-09T01:45:52;8.07;;;4.90;;
64342;SDS011;50675;53.530;-6.312;2022-09-09T01:48:24;12.77;;;5.20;;
64342;SDS011;50675;53.530;-6.312;2022-09-09T01:50:54;9.70;;;5.07;;
64342;SDS011;50675;53.530;-6.312;2022-09-09T01:53:20;10.13;;;5.35;;
64342;SDS011;50675;53.530;-6.312;2022-09-09T02:04:23;10.35;;;5.28;;
64342;SDS011;50675;53.530;-6.312;2022-09-09T02:06:53;11.13;;;5.40;;
64342;SDS011;50675;53.530;-6.312;2022-09-09T02:09:23;11.00;;;5.25;;
64342;SDS011;50675;53.530;-6.312;2022-09-09T02:11:53;9.98;;;5.57;;
64342;SDS011;50675;53.530;-6.312;2022-09-09T02:14:27;8.63;;;5.45;;
64342;SDS011;50675;53.530;-6.312;2022-09-09T02:17:19;8.90;;;5.65;;
64342;SDS011;50675;53.530;-6.312;2022-09-09T02:19:59;9.43;;;4.88;;
64342;SDS011;50675;53.530;-6.312;2022-09-09T02:22:33;9.80;;;5.10;;
64342;SDS011;50675;53.530;-6.312;2022-09-09T02:25:05;9.32;;;5.65;;
64342;SDS011;50675;53.530;-6.312;2022-09-09T02:27:35;10.32;;;5.45;;
64342;SDS011;50675;53.530;-6.312;2022-09-09T02:30:02;10.38;;;5.40;;
64342;SDS011;50675;53.530;-6.312;2022-09-09T02:32:29;9.38;;;5.03;;
64342;SDS011;50675;53.530;-6.312;2022-09-09T02:35:05;9.45;;;4.75;;
64342;SDS011;50675;53.530;-6.312;2022-09-09T02:37:35;12.15;;;4.63;;
64342;SDS011;50675;53.530;-6.312;2022-09-09T02:40:03;9.15;;;4.85;;
64342;SDS011;50675;53.530;-6.312;2022-09-09T02:42:31;6.78;;;4.57;;
64342;SDS011;50675;53.530;-6.312;2022-09-09T02:44:56;9.10;;;4.65;;
64342;SDS011;50675;53.530;-6.312;2022-09-09T02:50:13;9.10;;;4.68;;
64342;SDS011;50675;53.530;-6.312;2022-09-09T02:55:23;9.40;;;4.35;;
64342;SDS011;50675;53.530;-6.312;2022-09-09T02:57:59;9.90;;;4.90;;
64342;SDS011;50675;53.530;-6.312;2022-09-09T03:00:29;8.55;;;4.85;;
64342;SDS011;50675;53.530;-6.312;2022-09-09T03:02:56;10.13;;;5.00;;
64342;SDS011;50675;53.530;-6.312;2022-09-09T03:05:21;13.05;;;5.22;;
64342;SDS011;50675;53.530;-6.312;2022-09-09T03:07:47;9.75;;;4.90;;
64342;SDS011;50675;53.530;-6.312;2022-09-09T03:10:14;8.68;;;5.10;;
64342;SDS011;50675;53.530;-6.312;2022-09-09T03:12:40;9.52;;;5.10;;
64342;SDS011;50675;53.530;-6.312;2022-09-09T03:15:06;9.88;;;5.32;;
64342;SDS011;50675;53.530;-6.312;2022-09-09T03:17:33;11.02;;;5.18;;
64342;SDS011;50675;53.530;-6.312;2022-09-09T03:19:59;9.13;;;5.05;;
64342;SDS011;50675;53.530;-6.312;2022-09-09T03:22:26;10.40;;;5.28;;
64342;SDS011;50675;53.530;-6.312;2022-09-09T03:24:52;9.38;;;4.95;;
64342;SDS011;50675;53.530;-6.312;2022-09-09T03:27:18;9.75;;;5.10;;
64342;SDS011;50675;53.530;-6.312;2022-09-09T03:29:47;11.07;;;5.20;;
64342;SDS011;50675;53.530;-6.312;2022-09-09T03:34:44;8.30;;;4.70;;
64342;SDS011;50675;53.530;-6.312;2022-09-09T03:37:15;9.32;;;4.25;;
64342;SDS011;50675;53.530;-6.312;2022-09-09T03:39:43;9.43;;;4.07;;
64342;SDS011;50675;53.530;-6.312;2022-09-09T03:54:34;6.82;;;4.25;;
64342;SDS011;50675;53.530;-6.312;2022-09-09T03:57:00;6.57;;;3.60;;
64342;SDS011;50675;53.530;-6.312;2022-09-09T03:59:26;8.40;;;3.58;;
64342;SDS011;50675;53.530;-6.312;2022-09-09T04:01:52;4.78;;;3.40;;
64342;SDS011;50675;53.530;-6.312;2022-09-09T04:04:19;6.47;;;3.60;;
64342;SDS011;50675;53.530;-6.312;2022-09-09T04:06:45;6.70;;;3.20;;
64342;SDS011;50675;53.530;-6.312;2022-09-09T04:09:13;8.48;;;3.47;;
64342;SDS011;50675;53.530;-6.312;2022-09-09T04:11:40;6.45;;;3.38;;
64342;SDS011;50675;53.530;-6.312;2022-09-09T04:14:06;10.02;;;3.85;;
64342;SDS011;50675;53.530;-6.312;2022-09-09T04:16:33;6.57;;;4.00;;
64342;SDS011;50675;53.530;-6.312;2022-09-09T04:18:59;6.80;;;3.42;;
64342;SDS011;50675;53.530;-6.312;2022-09-09T04:21:26;5.85;;;3.95;;
64342;SDS011;50675;53.530;-6.312;2022-09-09T04:23:52;7.13;;;3.75;;
64342;SDS011;50675;53.530;-6.312;2022-09-09T04:26:17;8.43;;;3.88;;
64342;SDS011;50675;53.530;-6.312;2022-09-09T04:28:43;6.78;;;3.70;;
64342;SDS011;50675;53.530;-6.312;2022-09-09T04:31:10;7.85;;;4.28;;
64342;SDS011;50675;53.530;-6.312;2022-09-09T04:33:42;6.32;;;3.70;;
64342;SDS011;50675;53.530;-6.312;2022-09-09T04:36:08;6.60;;;3.50;;
64342;SDS011;50675;53.530;-6.312;2022-09-09T04:38:33;7.95;;;3.78;;
64342;SDS011;50675;53.530;-6.312;2022-09-09T04:40:59;7.60;;;4.07;;
64342;SDS011;50675;53.530;-6.312;2022-09-09T04:43:24;6.78;;;4.35;;
64342;SDS011;50675;53.530;-6.312;2022-09-09T04:45:53;6.57;;;4.05;;
64342;SDS011;50675;53.530;-6.312;2022-09-09T04:48:19;8.18;;;4.15;;
64342;SDS011;50675;53.530;-6.312;2022-09-09T04:50:56;9.20;;;4.50;;
64342;SDS011;50675;53.530;-6.312;2022-09-09T04:53:26;8.75;;;4.57;;
64342;SDS011;50675;53.530;-6.312;2022-09-09T04:56:14;8.05;;;4.05;;
64342;SDS011;50675;53.530;-6.312;2022-09-09T04:58:40;9.90;;;4.38;;
64342;SDS011;50675;53.530;-6.312;2022-09-09T05:01:10;10.52;;;4.30;;
64342;SDS011;50675;53.530;-6.312;2022-09-09T05:03:40;8.85;;;4.20;;
64342;SDS011;50675;53.530;-6.312;2022-09-09T05:06:07;9.45;;;4.53;;
64342;SDS011;50675;53.530;-6.312;2022-09-09T05:08:36;9.50;;;4.22;;
64342;SDS011;50675;53.530;-6.312;2022-09-09T05:11:02;8.00;;;4.07;;
64342;SDS011;50675;53.530;-6.312;2022-09-09T05:13:29;7.65;;;3.90;;
64342;SDS011;50675;53.530;-6.312;2022-09-09T05:15:57;7.72;;;4.28;;
64342;SDS011;50675;53.530;-6.312;2022-09-09T05:18:23;9.25;;;4.03;;
64342;SDS011;50675;53.530;-6.312;2022-09-09T05:20:49;5.72;;;3.92;;
64342;SDS011;50675;53.530;-6.312;2022-09-09T05:23:16;5.57;;;3.85;;
64342;SDS011;50675;53.530;-6.312;2022-09-09T05:25:42;5.82;;;3.95;;
64342;SDS011;50675;53.530;-6.312;2022-09-09T05:28:08;7.00;;;4.13;;
64342;SDS011;50675;53.530;-6.312;2022-09-09T05:30:35;8.48;;;3.90;;
64342;SDS011;50675;53.530;-6.312;2022-09-09T05:33:00;6.07;;;3.42;;
64342;SDS011;50675;53.530;-6.312;2022-09-09T05:35:26;7.53;;;4.50;;
64342;SDS011;50675;53.530;-6.312;2022-09-09T05:37:52;8.68;;;3.85;;
64342;SDS011;50675;53.530;-6.312;2022-09-09T05:40:18;9.00;;;4.55;;
64342;SDS011;50675;53.530;-6.312;2022-09-09T05:42:44;8.25;;;4.00;;
64342;SDS011;50675;53.530;-6.312;2022-09-09T05:45:09;9.00;;;4.22;;
64342;SDS011;50675;53.530;-6.312;2022-09-09T05:47:36;7.00;;;4.00;;
64342;SDS011;50675;53.530;-6.312;2022-09-09T05:50:03;8.20;;;4.25;;
64342;SDS011;50675;53.530;-6.312;2022-09-09T05:52:29;6.75;;;4.35;;
64342;SDS011;50675;53.530;-6.312;2022-09-09T05:54:55;9.40;;;4.38;;
64342;SDS011;50675;53.530;-6.312;2022-09-09T05:57:22;7.43;;;4.22;;
64342;SDS011;50675;53.530;-6.312;2022-09-09T05:59:48;7.68;;;4.70;;
64342;SDS011;50675;53.530;-6.312;2022-09-09T06:02:14;12.02;;;5.45;;
64342;SDS011;50675;53.530;-6.312;2022-09-09T06:04:40;8.18;;;5.03;;
64342;SDS011;50675;53.530;-6.312;2022-09-09T06:07:06;11.48;;;5.85;;
64342;SDS011;50675;53.530;-6.312;2022-09-09T06:09:32;8.85;;;5.30;;
64342;SDS011;50675;53.530;-6.312;2022-09-09T06:11:57;7.57;;;5.38;;
64342;SDS011;50675;53.530;-6.312;2022-09-09T06:14:23;7.72;;;5.45;;
64342;SDS011;50675;53.530;-6.312;2022-09-09T06:16:50;5.90;;;4.43;;
64342;SDS011;50675;53.530;-6.312;2022-09-09T06:19:17;8.32;;;4.30;;
64342;SDS011;50675;53.530;-6.312;2022-09-09T06:24:17;6.50;;;4.07;;
64342;SDS011;50675;53.530;-6.312;2022-09-09T06:26:51;7.32;;;4.28;;
64342;SDS011;50675;53.530;-6.312;2022-09-09T06:29:16;7.30;;;3.83;;
64342;SDS011;50675;53.530;-6.312;2022-09-09T06:31:42;7.68;;;4.32;;
64342;SDS011;50675;53.530;-6.312;2022-09-09T06:34:08;8.23;;;4.07;;
64342;SDS011;50675;53.530;-6.312;2022-09-09T06:36:52;8.13;;;4.05;;
64342;SDS011;50675;53.530;-6.312;2022-09-09T06:39:18;6.60;;;4.10;;
64342;SDS011;50675;53.530;-6.312;2022-09-09T06:42:02;6.65;;;4.30;;
64342;SDS011;50675;53.530;-6.312;2022-09-09T06:44:27;8.25;;;4.38;;
64342;SDS011;50675;53.530;-6.312;2022-09-09T06:46:53;6.75;;;4.20;;
64342;SDS011;50675;53.530;-6.312;2022-09-09T06:49:19;7.85;;;4.70;;
64342;SDS011;50675;53.530;-6.312;2022-09-09T06:51:44;8.07;;;4.57;;
64342;SDS011;50675;53.530;-6.312;2022-09-09T06:54:10;7.90;;;4.57;;
64342;SDS011;50675;53.530;-6.312;2022-09-09T06:56:40;6.50;;;4.22;;
64342;SDS011;50675;53.530;-6.312;2022-09-09T06:59:08;5.90;;;4.22;;
64342;SDS011;50675;53.530;-6.312;2022-09-09T07:01:38;7.28;;;4.15;;
64342;SDS011;50675;53.530;-6.312;2022-09-09T07:06:41;6.00;;;3.90;;
64342;SDS011;50675;53.530;-6.312;2022-09-09T07:09:10;7.85;;;4.10;;
64342;SDS011;50675;53.530;-6.312;2022-09-09T07:11:41;7.30;;;4.22;;
64342;SDS011;50675;53.530;-6.312;2022-09-09T07:14:14;7.53;;;3.67;;
64342;SDS011;50675;53.530;-6.312;2022-09-09T07:16:41;8.25;;;3.80;;
64342;SDS011;50675;53.530;-6.312;2022-09-09T07:19:10;6.88;;;3.70;;
64342;SDS011;50675;53.530;-6.312;2022-09-09T07:21:37;8.93;;;4.28;;
64342;SDS011;50675;53.530;-6.312;2022-09-09T07:24:08;8.23;;;3.80;;
64342;SDS011;50675;53.530;-6.312;2022-09-09T07:26:36;6.68;;;3.83;;
64342;SDS011;50675;53.530;-6.312;2022-09-09T07:29:03;6.88;;;3.90;;
64342;SDS011;50675;53.530;-6.312;2022-09-09T07:31:30;5.80;;;3.70;;
64342;SDS011;50675;53.530;-6.312;2022-09-09T07:34:01;5.88;;;3.38;;
64342;SDS011;50675;53.530;-6.312;2022-09-09T07:36:37;6.30;;;3.38;;
64342;SDS011;50675;53.530;-6.312;2022-09-09T07:39:06;4.97;;;2.90;;
64342;SDS011;50675;53.530;-6.312;2022-09-09T07:41:36;7.40;;;3.50;;
64342;SDS011;50675;53.530;-6.312;2022-09-09T07:44:13;5.25;;;3.13;;
64342;SDS011;50675;53.530;-6.312;2022-09-09T07:46:43;6.00;;;3.28;;
64342;SDS011;50675;53.530;-6.312;2022-09-09T07:49:10;5.10;;;3.17;;
64342;SDS011;50675;53.530;-6.312;2022-09-09T07:51:43;7.33;;;3.60;;
64342;SDS011;50675;53.530;-6.312;2022-09-09T07:54:11;9.25;;;3.47;;
64342;SDS011;50675;53.530;-6.312;2022-09-09T07:56:42;8.65;;;3.70;;
64342;SDS011;50675;53.530;-6.312;2022-09-09T07:59:09;6.90;;;3.40;;
64342;SDS011;50675;53.530;-6.312;2022-09-09T08:01:37;7.60;;;4.05;;
64342;SDS011;50675;53.530;-6.312;2022-09-09T08:04:10;5.53;;;3.00;;
64342;SDS011;50675;53.530;-6.312;2022-09-09T08:06:43;6.60;;;3.33;;
64342;SDS011;50675;53.530;-6.312;2022-09-09T08:09:11;5.05;;;2.58;;
64342;SDS011;50675;53.530;-6.312;2022-09-09T08:11:38;7.32;;;2.67;;
64342;SDS011;50675;53.530;-6.312;2022-09-09T08:14:06;5.55;;;2.88;;
64342;SDS011;50675;53.530;-6.312;2022-09-09T10:01:47;4.93;;;2.42;;
64342;SDS011;50675;53.530;-6.312;2022-09-09T10:39:47;4.53;;;2.90;;
64342;SDS011;50675;53.530;-6.312;2022-09-09T10:42:24;5.53;;;2.80;;
64342;SDS011;50675;53.530;-6.312;2022-09-09T10:45:32;5.90;;;3.33;;
64342;SDS011;50675;53.530;-6.312;2022-09-09T10:48:36;4.63;;;2.90;;
64342;SDS011;50675;53.530;-6.312;2022-09-09T10:53:45;3.63;;;2.40;;
64342;SDS011;50675;53.530;-6.312;2022-09-09T10:56:39;5.43;;;2.60;;
64342;SDS011;50675;53.530;-6.312;2022-09-09T10:59:18;4.87;;;2.77;;
64342;SDS011;50675;53.530;-6.312;2022-09-09T11:02:01;4.30;;;2.60;;
64342;SDS011;50675;53.530;-6.312;2022-09-09T11:04:51;3.38;;;2.60;;
64342;SDS011;50675;53.530;-6.312;2022-09-09T11:07:25;7.28;;;2.60;;
64342;SDS011;50675;53.530;-6.312;2022-09-09T11:10:00;5.00;;;2.70;;
64342;SDS011;50675;53.530;-6.312;2022-09-09T11:12:31;4.57;;;2.15;;
64342;SDS011;50675;53.530;-6.312;2022-09-09T11:15:20;7.70;;;3.28;;
64342;SDS011;50675;53.530;-6.312;2022-09-09T11:17:50;4.30;;;2.53;;
64342;SDS011;50675;53.530;-6.312;2022-09-09T11:20:20;5.40;;;2.90;;
64342;SDS011;50675;53.530;-6.312;2022-09-09T11:22:50;5.03;;;2.90;;
64342;SDS011;50675;53.530;-6.312;2022-09-09T11:25:28;4.13;;;2.80;;
64342;SDS011;50675;53.530;-6.312;2022-09-09T11:39:56;5.90;;;3.10;;
64342;SDS011;50675;53.530;-6.312;2022-09-09T11:43:01;4.95;;;3.03;;
64342;SDS011;50675;53.530;-6.312;2022-09-09T11:45:39;3.92;;;2.80;;
64342;SDS011;50675;53.530;-6.312;2022-09-09T11:53:52;9.68;;;3.38;;
64342;SDS011;50675;53.530;-6.312;2022-09-09T11:56:24;4.57;;;2.60;;
64342;SDS011;50675;53.530;-6.312;2022-09-09T11:58:59;5.57;;;2.65;;
64342;SDS011;50675;53.530;-6.312;2022-09-09T12:06:43;10.75;;;3.03;;
64342;SDS011;50675;53.530;-6.312;2022-09-09T12:09:19;5.07;;;2.88;;
64342;SDS011;50675;53.530;-6.312;2022-09-09T12:11:50;5.18;;;2.70;;
64342;SDS011;50675;53.530;-6.312;2022-09-09T12:14:23;5.35;;;2.90;;
64342;SDS011;50675;53.530;-6.312;2022-09-09T12:17:20;5.85;;;3.03;;
64342;SDS011;50675;53.530;-6.312;2022-09-09T12:19:48;5.07;;;2.80;;
64342;SDS011;50675;53.530;-6.312;2022-09-09T12:25:09;5.40;;;2.70;;
64342;SDS011;50675;53.530;-6.312;2022-09-09T12:33:35;5.72;;;3.03;;
64342;SDS011;50675;53.530;-6.312;2022-09-09T12:36:02;6.18;;;3.33;;
64342;SDS011;50675;53.530;-6.312;2022-09-09T12:38:37;5.10;;;2.80;;
64342;SDS011;50675;53.530;-6.312;2022-09-09T12:41:05;6.70;;;4.75;;
64342;SDS011;50675;53.530;-6.312;2022-09-09T12:43:32;5.30;;;2.88;;
64342;SDS011;50675;53.530;-6.312;2022-09-09T12:46:02;5.82;;;3.08;;
64342;SDS011;50675;53.530;-6.312;2022-09-09T12:48:35;4.90;;;3.17;;
64342;SDS011;50675;53.530;-6.312;2022-09-09T12:51:05;5.13;;;2.70;;
64342;SDS011;50675;53.530;-6.312;2022-09-09T12:53:42;4.97;;;2.90;;
64342;SDS011;50675;53.530;-6.312;2022-09-09T12:56:18;4.65;;;2.90;;
64342;SDS011;50675;53.530;-6.312;2022-09-09T12:58:46;4.72;;;2.92;;
64342;SDS011;50675;53.530;-6.312;2022-09-09T13:03:52;6.05;;;3.83;;
64342;SDS011;50675;53.530;-6.312;2022-09-09T13:06:40;7.47;;;4.60;;
64342;SDS011;50675;53.530;-6.312;2022-09-09T13:09:04;7.43;;;4.15;;
64342;SDS011;50675;53.530;-6.312;2022-09-09T13:11:35;6.72;;;4.47;;
64342;SDS011;50675;53.530;-6.312;2022-09-09T13:14:13;6.65;;;4.53;;
64342;SDS011;50675;53.530;-6.312;2022-09-09T13:16:53;6.03;;;4.82;;
64342;SDS011;50675;53.530;-6.312;2022-09-09T13:19:21;7.65;;;5.00;;
64342;SDS011;50675;53.530;-6.312;2022-09-09T13:21:51;7.40;;;4.28;;
64342;SDS011;50675;53.530;-6.312;2022-09-09T13:26:58;6.78;;;4.20;;
64342;SDS011;50675;53.530;-6.312;2022-09-09T14:13:09;3.85;;;1.80;;
64342;SDS011;50675;53.530;-6.312;2022-09-09T14:15:35;4.43;;;2.05;;
64342;SDS011;50675;53.530;-6.312;2022-09-09T14:18:01;3.58;;;2.10;;
64342;SDS011;50675;53.530;-6.312;2022-09-09T14:20:27;3.17;;;1.92;;
64342;SDS011;50675;53.530;-6.312;2022-09-09T14:22:53;3.03;;;1.90;;
64342;SDS011;50675;53.530;-6.312;2022-09-09T14:25:19;2.30;;;1.63;;
64342;SDS011;50675;53.530;-6.312;2022-09-09T14:27:44;1.98;;;1.80;;
64342;SDS011;50675;53.530;-6.312;2022-09-09T14:30:11;1.95;;;1.80;;
64342;SDS011;50675;53.530;-6.312;2022-09-09T14:32:37;3.33;;;1.75;;
64342;SDS011;50675;53.530;-6.312;2022-09-09T14:35:03;3.15;;;2.40;;
64342;SDS011;50675;53.530;-6.312;2022-09-09T14:37:29;3.70;;;2.38;;
64342;SDS011;50675;53.530;-6.312;2022-09-09T14:39:56;3.40;;;1.90;;
64342;SDS011;50675;53.530;-6.312;2022-09-09T14:42:22;3.50;;;2.38;;
64342;SDS011;50675;53.530;-6.312;2022-09-09T14:44:48;3.83;;;2.33;;
64342;SDS011;50675;53.530;-6.312;2022-09-09T14:47:14;3.97;;;2.08;;
64342;SDS011;50675;53.530;-6.312;2022-09-09T14:49:40;3.40;;;2.20;;
64342;SDS011;50675;53.530;-6.312;2022-09-09T14:52:05;3.28;;;2.38;;
64342;SDS011;50675;53.530;-6.312;2022-09-09T14:54:31;4.53;;;2.40;;
64342;SDS011;50675;53.530;-6.312;2022-09-09T14:56:57;5.30;;;2.40;;
64342;SDS011;50675;53.530;-6.312;2022-09-09T14:59:24;3.58;;;2.30;;
64342;SDS011;50675;53.530;-6.312;2022-09-09T15:01:50;3.50;;;2.38;;
64342;SDS011;50675;53.530;-6.312;2022-09-09T15:04:15;2.60;;;1.77;;
64342;SDS011;50675;53.530;-6.312;2022-09-09T15:06:42;3.75;;;2.20;;
64342;SDS011;50675;53.530;-6.312;2022-09-09T15:09:12;4.05;;;2.20;;
64342;SDS011;50675;53.530;-6.312;2022-09-09T15:11:38;3.00;;;2.20;;
64342;SDS011;50675;53.530;-6.312;2022-09-09T15:14:04;3.13;;;2.20;;
64342;SDS011;50675;53.530;-6.312;2022-09-09T15:16:31;3.33;;;2.17;;
64342;SDS011;50675;53.530;-6.312;2022-09-09T15:18:58;2.75;;;2.10;;
64342;SDS011;50675;53.530;-6.312;2022-09-09T15:21:26;3.17;;;2.28;;
64342;SDS011;50675;53.530;-6.312;2022-09-09T15:23:53;5.57;;;2.45;;
64342;SDS011;50675;53.530;-6.312;2022-09-09T15:26:20;2.95;;;2.28;;
64342;SDS011;50675;53.530;-6.312;2022-09-09T15:28:46;3.63;;;2.03;;
64342;SDS011;50675;53.530;-6.312;2022-09-09T15:31:14;2.45;;;1.98;;
64342;SDS011;50675;53.530;-6.312;2022-09-09T15:33:50;2.58;;;1.80;;
64342;SDS011;50675;53.530;-6.312;2022-09-09T15:36:25;4.18;;;1.90;;
64342;SDS011;50675;53.530;-6.312;2022-09-09T15:38:51;4.13;;;2.25;;
64342;SDS011;50675;53.530;-6.312;2022-09-09T15:41:18;3.40;;;2.10;;
64342;SDS011;50675;53.530;-6.312;2022-09-09T15:43:46;4.18;;;2.15;;
64342;SDS011;50675;53.530;-6.312;2022-09-09T15:46:22;4.20;;;2.00;;
64342;SDS011;50675;53.530;-6.312;2022-09-09T15:48:56;2.75;;;1.92;;
64342;SDS011;50675;53.530;-6.312;2022-09-09T15:51:29;2.83;;;1.77;;
64342;SDS011;50675;53.530;-6.312;2022-09-09T15:53:57;3.03;;;1.83;;
64342;SDS011;50675;53.530;-6.312;2022-09-09T15:56:24;2.38;;;1.60;;
64342;SDS011;50675;53.530;-6.312;2022-09-09T15:58:51;6.72;;;2.35;;
64342;SDS011;50675;53.530;-6.312;2022-09-09T16:01:17;2.97;;;2.20;;
64342;SDS011;50675;53.530;-6.312;2022-09-09T16:03:44;3.45;;;1.80;;
64342;SDS011;50675;53.530;-6.312;2022-09-09T16:06:16;3.55;;;2.25;;
64342;SDS011;50675;53.530;-6.312;2022-09-09T16:08:44;3.80;;;2.00;;
64342;SDS011;50675;53.530;-6.312;2022-09-09T16:11:15;3.38;;;2.03;;
64342;SDS011;50675;53.530;-6.312;2022-09-09T16:13:45;3.28;;;2.17;;
64342;SDS011;50675;53.530;-6.312;2022-09-09T16:16:14;3.63;;;2.13;;
64342;SDS011;50675;53.530;-6.312;2022-09-09T16:18:42;2.35;;;1.90;;
64342;SDS011;50675;53.530;-6.312;2022-09-09T16:21:15;2.17;;;1.63;;
64342;SDS011;50675;53.530;-6.312;2022-09-09T16:23:43;2.10;;;1.80;;
64342;SDS011;50675;53.530;-6.312;2022-09-09T16:26:10;2.67;;;2.00;;
64342;SDS011;50675;53.530;-6.312;2022-09-09T16:28:37;3.15;;;1.95;;
64342;SDS011;50675;53.530;-6.312;2022-09-09T16:31:08;2.88;;;1.80;;
64342;SDS011;50675;53.530;-6.312;2022-09-09T16:33:36;3.13;;;1.90;;
64342;SDS011;50675;53.530;-6.312;2022-09-09T16:36:09;2.72;;;1.90;;
64342;SDS011;50675;53.530;-6.312;2022-09-09T16:38:37;5.15;;;1.98;;
64342;SDS011;50675;53.530;-6.312;2022-09-09T16:41:04;4.05;;;2.15;;
64342;SDS011;50675;53.530;-6.312;2022-09-09T16:43:32;3.33;;;1.90;;
64342;SDS011;50675;53.530;-6.312;2022-09-09T16:45:58;3.00;;;2.00;;
64342;SDS011;50675;53.530;-6.312;2022-09-09T16:48:30;3.88;;;2.45;;
64342;SDS011;50675;53.530;-6.312;2022-09-09T16:51:01;2.63;;;2.00;;
64342;SDS011;50675;53.530;-6.312;2022-09-09T16:53:32;3.67;;;1.90;;
64342;SDS011;50675;53.530;-6.312;2022-09-09T16:56:04;4.70;;;1.95;;
64342;SDS011;50675;53.530;-6.312;2022-09-09T16:58:31;2.67;;;2.03;;
64342;SDS011;50675;53.530;-6.312;2022-09-09T17:00:58;3.38;;;1.95;;
64342;SDS011;50675;53.530;-6.312;2022-09-09T17:03:24;4.57;;;2.20;;
64342;SDS011;50675;53.530;-6.312;2022-09-09T17:05:50;2.80;;;2.15;;
64342;SDS011;50675;53.530;-6.312;2022-09-09T17:08:16;4.32;;;2.10;;
64342;SDS011;50675;53.530;-6.312;2022-09-09T17:10:42;3.58;;;2.55;;
64342;SDS011;50675;53.530;-6.312;2022-09-09T17:13:07;6.03;;;2.33;;
64342;SDS011;50675;53.530;-6.312;2022-09-09T17:15:33;5.80;;;2.70;;
64342;SDS011;50675;53.530;-6.312;2022-09-09T17:18:05;2.85;;;1.80;;
64342;SDS011;50675;53.530;-6.312;2022-09-09T17:20:30;3.35;;;1.65;;
64342;SDS011;50675;53.530;-6.312;2022-09-09T17:23:00;3.30;;;1.10;;
64342;SDS011;50675;53.530;-6.312;2022-09-09T17:25:25;3.72;;;1.40;;
64342;SDS011;50675;53.530;-6.312;2022-09-09T17:27:51;1.02;;;0.75;;
64342;SDS011;50675;53.530;-6.312;2022-09-09T17:30:18;2.70;;;1.05;;
64342;SDS011;50675;53.530;-6.312;2022-09-09T17:32:44;1.98;;;0.95;;
64342;SDS011;50675;53.530;-6.312;2022-09-09T17:35:09;2.08;;;1.30;;
64342;SDS011;50675;53.530;-6.312;2022-09-09T17:37:35;3.08;;;1.23;;
64342;SDS011;50675;53.530;-6.312;2022-09-09T17:40:01;2.13;;;1.58;;
64342;SDS011;50675;53.530;-6.312;2022-09-09T17:42:27;3.13;;;0.75;;
64342;SDS011;50675;53.530;-6.312;2022-09-09T17:44:53;3.00;;;0.98;;
64342;SDS011;50675;53.530;-6.312;2022-09-09T17:47:18;2.90;;;0.93;;
64342;SDS011;50675;53.530;-6.312;2022-09-09T17:49:45;3.47;;;0.73;;
64342;SDS011;50675;53.530;-6.312;2022-09-09T17:52:11;1.90;;;0.70;;
64342;SDS011;50675;53.530;-6.312;2022-09-09T17:54:37;2.63;;;0.75;;
64342;SDS011;50675;53.530;-6.312;2022-09-09T17:57:03;2.70;;;0.80;;
64342;SDS011;50675;53.530;-6.312;2022-09-09T17:59:28;2.03;;;0.95;;
64342;SDS011;50675;53.530;-6.312;2022-09-09T18:01:55;0.52;;;0.52;;
64342;SDS011;50675;53.530;-6.312;2022-09-09T18:04:22;3.67;;;1.25;;
64342;SDS011;50675;53.530;-6.312;2022-09-09T18:06:48;1.52;;;0.90;;
64342;SDS011;50675;53.530;-6.312;2022-09-09T18:09:18;2.20;;;1.10;;
64342;SDS011;50675;53.530;-6.312;2022-09-09T18:11:47;1.55;;;0.80;;
64342;SDS011;50675;53.530;-6.312;2022-09-09T18:14:17;3.78;;;0.95;;
64342;SDS011;50675;53.530;-6.312;2022-09-09T18:16:44;2.10;;;1.00;;
64342;SDS011;50675;53.530;-6.312;2022-09-09T18:19:11;5.53;;;1.33;;
64342;SDS011;50675;53.530;-6.312;2022-09-09T18:21:39;2.55;;;1.10;;
64342;SDS011;50675;53.530;-6.312;2022-09-09T18:24:06;1.92;;;0.68;;
64342;SDS011;50675;53.530;-6.312;2022-09-09T18:26:34;1.50;;;0.73;;
64342;SDS011;50675;53.530;-6.312;2022-09-09T18:29:01;3.25;;;1.13;;
64342;SDS011;50675;53.530;-6.312;2022-09-09T18:31:30;3.40;;;1.10;;
64342;SDS011;50675;53.530;-6.312;2022-09-09T18:33:56;5.28;;;0.95;;
64342;SDS011;50675;53.530;-6.312;2022-09-09T18:36:26;2.30;;;0.98;;
64342;SDS011;50675;53.530;-6.312;2022-09-09T18:38:55;2.63;;;0.90;;
64342;SDS011;50675;53.530;-6.312;2022-09-09T18:41:25;2.95;;;1.13;;
64342;SDS011;50675;53.530;-6.312;2022-09-09T18:43:53;3.55;;;1.50;;
64342;SDS011;50675;53.530;-6.312;2022-09-09T18:46:22;1.33;;;1.00;;
64342;SDS011;50675;53.530;-6.312;2022-09-09T18:48:49;2.00;;;1.10;;
64342;SDS011;50675;53.530;-6.312;2022-09-09T18:51:19;5.22;;;1.38;;
64342;SDS011;50675;53.530;-6.312;2022-09-09T18:53:51;5.20;;;1.00;;
64342;SDS011;50675;53.530;-6.312;2022-09-09T19:35:08;4.53;;;1.40;;
64342;SDS011;50675;53.530;-6.312;2022-09-09T19:48:15;4.30;;;1.58;;
64342;SDS011;50675;53.530;-6.312;2022-09-09T19:54:31;5.95;;;1.23;;
64342;SDS011;50675;53.530;-6.312;2022-09-09T19:58:13;3.10;;;1.17;;
64342;SDS011;50675;53.530;-6.312;2022-09-09T20:12:35;4.03;;;1.50;;
64342;SDS011;50675;53.530;-6.312;2022-09-09T20:15:54;3.78;;;1.30;;
64342;SDS011;50675;53.530;-6.312;2022-09-09T20:22:27;3.38;;;1.45;;
64342;SDS011;50675;53.530;-6.312;2022-09-09T20:25:46;3.80;;;1.50;;
64342;SDS011;50675;53.530;-6.312;2022-09-09T20:29:06;6.55;;;1.20;;
64342;SDS011;50675;53.530;-6.312;2022-09-09T20:39:59;2.80;;;1.10;;
64342;SDS011;50675;53.530;-6.312;2022-09-09T20:55:41;4.57;;;1.88;;
64342;SDS011;50675;53.530;-6.312;2022-09-09T20:58:47;3.05;;;1.75;;
64342;SDS011;50675;53.530;-6.312;2022-09-09T21:33:21;7.80;;;2.13;;
64342;SDS011;50675;53.530;-6.312;2022-09-09T21:36:57;6.65;;;1.90;;
64342;SDS011;50675;53.530;-6.312;2022-09-09T21:39:45;5.43;;;2.65;;
64342;SDS011;50675;53.530;-6.312;2022-09-09T21:46:27;4.10;;;2.60;;
64342;SDS011;50675;53.530;-6.312;2022-09-09T21:49:08;5.45;;;1.88;;
64342;SDS011;50675;53.530;-6.312;2022-09-09T21:52:16;5.38;;;1.88;;